Time;durP1;ratioP1;P1;durP2;ratioP2;P2;SDS_P1;SDS_P2;PMS_P1;PMS_P2;Temp;Humidity;BMP_temperature;BMP_pressure;BME280_temperature;BME280_humidity;BME280_pressure;Samples;Min_cycle;Max_cycle;Signal;HPM_P1;HPM_P2
2021/06/06 00:01:05;;;;;;;28.42;12.43;;;;;;;;;;5080287;28;20092;-50
2021/06/06 00:03:33;;;;;;;27.27;12.63;;;;;;;;;;5078097;28;20044;-50
2021/06/06 00:06:05;;;;;;;29.05;12.95;;;;;;;;;;5097725;28;20040;-51
2021/06/06 00:08:33;;;;;;;26.75;13.32;;;;;;;;;;5077006;28;20044;-48
2021/06/06 00:11:01;;;;;;;29.30;13.40;;;;;;;;;;5080889;28;20048;-50
2021/06/06 00:13:27;;;;;;;38.60;13.50;;;;;;;;;;5077322;28;20044;-56
2021/06/06 00:15:54;;;;;;;29.27;12.70;;;;;;;;;;5078659;28;20066;-51
2021/06/06 00:18:20;;;;;;;28.10;13.02;;;;;;;;;;5077887;28;20067;-49
2021/06/06 00:20:46;;;;;;;30.55;13.45;;;;;;;;;;5079212;28;20040;-51
2021/06/06 00:23:13;;;;;;;29.35;14.15;;;;;;;;;;5080882;28;20121;-55
2021/06/06 00:25:40;;;;;;;35.30;13.52;;;;;;;;;;5078966;28;20052;-52
2021/06/06 00:28:06;;;;;;;34.65;14.45;;;;;;;;;;5080866;28;20032;-52
2021/06/06 00:30:32;;;;;;;27.52;12.25;;;;;;;;;;5077221;28;20048;-55
2021/06/06 00:32:58;;;;;;;36.42;13.90;;;;;;;;;;5097612;28;20119;-53
2021/06/06 00:35:25;;;;;;;32.10;12.85;;;;;;;;;;5094026;28;20052;-56
2021/06/06 00:37:52;;;;;;;30.05;13.02;;;;;;;;;;5080249;28;20054;-54
2021/06/06 00:40:21;;;;;;;29.10;12.57;;;;;;;;;;5075865;28;20036;-55
2021/06/06 00:42:47;;;;;;;35.88;14.80;;;;;;;;;;5081242;28;20040;-49
2021/06/06 00:45:15;;;;;;;30.60;13.05;;;;;;;;;;5077002;28;20055;-52
2021/06/06 00:47:41;;;;;;;34.22;13.77;;;;;;;;;;5097209;28;20110;-50
2021/06/06 00:50:09;;;;;;;31.77;13.68;;;;;;;;;;5089792;28;20045;-53
2021/06/06 00:52:36;;;;;;;36.40;14.00;;;;;;;;;;5076052;28;20147;-52
2021/06/06 00:55:03;;;;;;;38.55;14.35;;;;;;;;;;5076157;28;20060;-56
2021/06/06 00:57:33;;;;;;;37.00;13.65;;;;;;;;;;5081148;28;20052;-55
2021/06/06 01:00:05;;;;;;;36.80;13.40;;;;;;;;;;5079008;28;20036;-54
2021/06/06 01:02:31;;;;;;;32.55;13.25;;;;;;;;;;5064387;28;20119;-56
2021/06/06 01:04:56;;;;;;;31.30;13.70;;;;;;;;;;5075082;28;20032;-52
2021/06/06 01:07:22;;;;;;;30.15;12.35;;;;;;;;;;5080406;28;20044;-53
2021/06/06 01:09:48;;;;;;;30.10;12.80;;;;;;;;;;5083965;28;20040;-50
2021/06/06 01:12:17;;;;;;;36.97;13.05;;;;;;;;;;5065391;28;20044;-53
2021/06/06 01:14:48;;;;;;;30.95;12.50;;;;;;;;;;5065321;28;20041;-54
2021/06/06 01:17:17;;;;;;;28.85;11.10;;;;;;;;;;5073417;28;20040;-52
2021/06/06 01:19:46;;;;;;;30.27;11.27;;;;;;;;;;5082487;28;20040;-50
2021/06/06 01:22:23;;;;;;;30.63;11.45;;;;;;;;;;5079591;28;20044;-52
2021/06/06 01:24:52;;;;;;;31.70;12.45;;;;;;;;;;5081230;28;20043;-51
2021/06/06 01:27:18;;;;;;;;;;;;;;;;;;5079001;28;20072;-52
2021/06/06 01:29:44;;;;;;;37.92;13.18;;;;;;;;;;5081901;28;19935;-53
2021/06/06 01:32:15;;;;;;;29.30;12.05;;;;;;;;;;5070623;28;20037;-52
2021/06/06 01:34:43;;;;;;;33.58;13.10;;;;;;;;;;5082949;28;20051;-51
2021/06/06 01:37:10;;;;;;;29.52;14.05;;;;;;;;;;5074749;28;22346;-51
2021/06/06 01:39:37;;;;;;;32.20;14.63;;;;;;;;;;5061323;28;20053;-52
2021/06/06 01:42:07;;;;;;;32.63;14.13;;;;;;;;;;5075490;28;20184;-56
2021/06/06 01:44:35;;;;;;;36.83;14.57;;;;;;;;;;5082108;28;20045;-53
2021/06/06 01:47:04;;;;;;;30.03;13.63;;;;;;;;;;5079179;28;20052;-52
2021/06/06 01:49:31;;;;;;;28.17;12.80;;;;;;;;;;5081158;28;20285;-52
2021/06/06 01:52:00;;;;;;;37.67;13.00;;;;;;;;;;5081414;28;20063;-52
2021/06/06 01:54:28;;;;;;;31.20;13.02;;;;;;;;;;5098706;28;20041;-50
2021/06/06 01:56:54;;;;;;;32.33;13.17;;;;;;;;;;5081318;28;20036;-55
2021/06/06 01:59:24;;;;;;;31.67;12.13;;;;;;;;;;5080575;28;20293;-53
2021/06/06 02:01:50;;;;;;;26.63;11.15;;;;;;;;;;5084184;28;20044;-55
2021/06/06 02:04:16;;;;;;;31.17;11.32;;;;;;;;;;5076464;28;20052;-51
2021/06/06 02:06:43;;;;;;;32.53;12.60;;;;;;;;;;5062187;28;20041;-54
2021/06/06 02:09:11;;;;;;;34.05;12.20;;;;;;;;;;5071165;28;20167;-50
2021/06/06 02:11:40;;;;;;;35.20;13.15;;;;;;;;;;5082957;28;20041;-56
2021/06/06 02:14:08;;;;;;;33.25;13.38;;;;;;;;;;5078062;28;20032;-54
2021/06/06 02:16:40;;;;;;;36.80;14.25;;;;;;;;;;5083101;28;20037;-55
2021/06/06 02:19:07;;;;;;;40.28;14.40;;;;;;;;;;5074774;28;20033;-56
2021/06/06 02:21:33;;;;;;;39.13;14.65;;;;;;;;;;5062670;28;20037;-52
2021/06/06 02:23:59;;;;;;;49.70;17.30;;;;;;;;;;5066759;28;20113;-51
2021/06/06 02:26:27;;;;;;;45.50;17.63;;;;;;;;;;5083476;28;20044;-56
2021/06/06 02:28:59;;;;;;;40.65;16.50;;;;;;;;;;5079976;28;20040;-54
2021/06/06 02:31:27;;;;;;;43.63;17.02;;;;;;;;;;5082792;28;20040;-52
2021/06/06 02:33:53;;;;;;;;;;;;;;;;;;5081358;28;20041;-55
2021/06/06 02:36:21;;;;;;;47.60;15.30;;;;;;;;;;5084110;28;19923;-52
2021/06/06 02:38:51;;;;;;;48.67;17.50;;;;;;;;;;5082276;28;20047;-54
2021/06/06 02:41:19;;;;;;;50.03;18.85;;;;;;;;;;5082207;28;20066;-52
2021/06/06 02:43:46;;;;;;;37.17;15.65;;;;;;;;;;5083403;28;20065;-51
2021/06/06 02:46:14;;;;;;;39.80;16.70;;;;;;;;;;5080103;28;20044;-52
2021/06/06 02:48:42;;;;;;;46.92;18.85;;;;;;;;;;5082886;28;20048;-52
2021/06/06 02:51:08;;;;;;;;;;;;;;;;;;5063315;28;20115;-47
2021/06/06 02:53:37;;;;;;;41.33;15.55;;;;;;;;;;5062207;28;19920;-54
2021/06/06 02:56:08;;;;;;;47.92;17.40;;;;;;;;;;5071959;28;20044;-53
2021/06/06 02:58:37;;;;;;;51.55;17.63;;;;;;;;;;5082008;28;20033;-51
2021/06/06 03:03:51;;;;;;;41.28;17.45;;;;;;;;;;6073862;23;20027;-55
2021/06/06 03:06:19;;;;;;;45.92;19.02;;;;;;;;;;6038595;23;20105;-56
2021/06/06 03:08:53;;;;;;;40.55;17.58;;;;;;;;;;6047815;23;20037;-56
2021/06/06 03:11:19;;;;;;;42.22;17.80;;;;;;;;;;6031839;23;20029;-56
2021/06/06 03:13:47;;;;;;;50.90;19.35;;;;;;;;;;6054511;23;20034;-56
2021/06/06 03:16:14;;;;;;;39.95;17.33;;;;;;;;;;6078844;23;20057;-54
2021/06/06 03:18:42;;;;;;;39.35;17.55;;;;;;;;;;6075488;23;20049;-56
2021/06/06 03:21:10;;;;;;;48.45;18.05;;;;;;;;;;6081686;23;20122;-57
2021/06/06 03:23:36;;;;;;;42.15;17.20;;;;;;;;;;6073828;23;20025;-56
2021/06/06 03:26:06;;;;;;;49.75;17.83;;;;;;;;;;6055432;23;20043;-57
2021/06/06 03:28:37;;;;;;;38.63;16.27;;;;;;;;;;6075508;23;20036;-57
2021/06/06 03:31:06;;;;;;;42.83;17.98;;;;;;;;;;6057191;23;20074;-57
2021/06/06 03:33:39;;;;;;;45.17;17.65;;;;;;;;;;6076027;23;20039;-57
2021/06/06 03:36:05;;;;;;;46.08;18.77;;;;;;;;;;6057200;23;20047;-56
2021/06/06 03:38:31;;;;;;;43.80;17.02;;;;;;;;;;6056009;23;20028;-54
2021/06/06 03:40:57;;;;;;;41.40;17.65;;;;;;;;;;6052112;23;20052;-56
2021/06/06 03:43:24;;;;;;;38.88;15.95;;;;;;;;;;6055374;23;20032;-55
2021/06/06 03:45:50;;;;;;;40.88;17.08;;;;;;;;;;6052523;23;20033;-55
2021/06/06 03:48:20;;;;;;;38.92;18.08;;;;;;;;;;6057787;23;20086;-56
2021/06/06 03:50:51;;;;;;;41.47;16.58;;;;;;;;;;6051023;23;20055;-56
2021/06/06 03:53:17;;;;;;;36.20;15.55;;;;;;;;;;6080560;23;20039;-56
2021/06/06 03:55:43;;;;;;;31.05;13.68;;;;;;;;;;6052640;23;20051;-56
2021/06/06 03:58:11;;;;;;;30.42;12.30;;;;;;;;;;6082046;23;20021;-54
2021/06/06 04:00:40;;;;;;;26.52;11.07;;;;;;;;;;6079078;23;20033;-54
2021/06/06 04:03:11;;;;;;;24.15;10.57;;;;;;;;;;6070369;23;20041;-56
2021/06/06 04:05:37;;;;;;;28.60;11.75;;;;;;;;;;6076062;23;20021;-53
2021/06/06 04:08:04;;;;;;;26.27;10.98;;;;;;;;;;6070817;23;20040;-55
2021/06/06 04:10:30;;;;;;;27.50;10.40;;;;;;;;;;6022819;23;20044;-57
2021/06/06 04:12:57;;;;;;;27.70;11.20;;;;;;;;;;6019448;23;20052;-49
2021/06/06 04:15:23;;;;;;;25.50;10.55;;;;;;;;;;6052187;23;20107;-49
2021/06/06 04:17:52;;;;;;;21.48;10.38;;;;;;;;;;6048233;23;20033;-50
2021/06/06 04:20:19;;;;;;;24.50;10.60;;;;;;;;;;6051499;23;20037;-53
2021/06/06 04:22:45;;;;;;;24.38;10.88;;;;;;;;;;6052226;23;20045;-50
2021/06/06 04:25:12;;;;;;;23.15;10.95;;;;;;;;;;6047664;23;20029;-55
2021/06/06 04:27:38;;;;;;;24.33;10.98;;;;;;;;;;6052442;23;20040;-52
2021/06/06 04:30:05;;;;;;;22.77;10.80;;;;;;;;;;6050190;23;20037;-54
2021/06/06 04:32:31;;;;;;;27.95;10.52;;;;;;;;;;6052979;23;20029;-50
2021/06/06 04:34:59;;;;;;;27.73;11.00;;;;;;;;;;6056031;23;20032;-55
2021/06/06 04:37:34;;;;;;;28.17;11.10;;;;;;;;;;6054407;23;20037;-53
2021/06/06 04:40:00;;;;;;;29.92;12.15;;;;;;;;;;6063074;23;20266;-54
2021/06/06 04:42:26;;;;;;;28.17;11.23;;;;;;;;;;6051059;23;20048;-53
2021/06/06 04:44:52;;;;;;;28.33;12.20;;;;;;;;;;6050114;23;20057;-53
2021/06/06 04:47:19;;;;;;;25.63;10.88;;;;;;;;;;6054132;23;20098;-53
2021/06/06 04:49:45;;;;;;;28.88;12.20;;;;;;;;;;6051419;23;20017;-55
2021/06/06 04:52:13;;;;;;;27.42;11.32;;;;;;;;;;6053733;23;20120;-52
2021/06/06 04:54:40;;;;;;;28.38;11.82;;;;;;;;;;6049109;23;20033;-50
2021/06/06 04:57:07;;;;;;;29.63;11.82;;;;;;;;;;6053914;23;20041;-50
2021/06/06 04:59:36;;;;;;;32.23;12.63;;;;;;;;;;6047463;23;20037;-53
2021/06/06 05:02:02;;;;;;;32.47;11.77;;;;;;;;;;6057258;23;20154;-52
2021/06/06 05:04:28;;;;;;;24.65;11.10;;;;;;;;;;6076442;23;20029;-48
2021/06/06 05:06:54;;;;;;;29.90;11.07;;;;;;;;;;6078795;23;20044;-52
2021/06/06 05:09:23;;;;;;;26.98;11.48;;;;;;;;;;6055596;23;20062;-54
2021/06/06 05:11:49;;;;;;;30.23;13.40;;;;;;;;;;6053601;23;20025;-50
2021/06/06 05:14:15;;;;;;;29.08;12.80;;;;;;;;;;6057049;23;20020;-52
2021/06/06 05:16:42;;;;;;;36.38;13.98;;;;;;;;;;6053856;23;20029;-52
2021/06/06 05:19:09;;;;;;;32.33;14.55;;;;;;;;;;6055158;23;20040;-51
2021/06/06 05:21:35;;;;;;;35.95;14.35;;;;;;;;;;6075376;23;20025;-51
2021/06/06 05:24:01;;;;;;;36.08;13.23;;;;;;;;;;6078748;23;20040;-55
2021/06/06 05:26:28;;;;;;;34.08;13.98;;;;;;;;;;6053188;23;20025;-50
2021/06/06 05:28:57;;;;;;;35.25;14.88;;;;;;;;;;6079491;23;20068;-55
2021/06/06 05:31:23;;;;;;;37.08;14.13;;;;;;;;;;6051955;23;20039;-55
2021/06/06 05:33:49;;;;;;;35.20;13.80;;;;;;;;;;6056537;23;20064;-52
2021/06/06 05:36:16;;;;;;;35.80;14.70;;;;;;;;;;6052543;23;20123;-54
2021/06/06 05:38:44;;;;;;;32.92;13.95;;;;;;;;;;6058682;23;20028;-53
2021/06/06 05:41:10;;;;;;;;;;;;;;;;;;6053776;23;20051;-50
2021/06/06 05:43:38;;;;;;;34.90;13.23;;;;;;;;;;6056161;23;19928;-51
2021/06/06 05:46:04;;;;;;;34.67;14.15;;;;;;;;;;6057162;23;20028;-56
2021/06/06 05:48:36;;;;;;;36.67;13.88;;;;;;;;;;6078482;23;20049;-51
2021/06/06 05:51:02;;;;;;;33.75;14.57;;;;;;;;;;6058647;23;20035;-51
2021/06/06 05:53:29;;;;;;;34.40;14.27;;;;;;;;;;6054842;23;20036;-52
2021/06/06 05:55:55;;;;;;;32.85;13.63;;;;;;;;;;6057525;23;20056;-52
2021/06/06 05:58:22;;;;;;;33.80;13.50;;;;;;;;;;6079829;23;20143;-47
2021/06/06 06:00:50;;;;;;;33.80;12.02;;;;;;;;;;6057951;23;20036;-52
2021/06/06 06:03:17;;;;;;;30.55;12.45;;;;;;;;;;6078304;23;20032;-52
2021/06/06 06:05:43;;;;;;;28.05;12.15;;;;;;;;;;6081468;23;20036;-52
2021/06/06 06:08:21;;;;;;;27.45;12.02;;;;;;;;;;6057708;23;20029;-56
2021/06/06 06:10:47;;;;;;;28.10;11.32;;;;;;;;;;6033002;23;20033;-52
2021/06/06 06:13:14;;;;;;;29.95;10.82;;;;;;;;;;6045794;23;20025;-54
2021/06/06 06:15:40;;;;;;;23.73;10.57;;;;;;;;;;6058733;23;20040;-49
2021/06/06 06:18:08;;;;;;;24.48;9.57;;;;;;;;;;6054975;23;20025;-55
2021/06/06 06:20:34;;;;;;;23.27;9.13;;;;;;;;;;6082415;23;20121;-51
2021/06/06 06:23:00;;;;;;;19.98;8.98;;;;;;;;;;6079685;23;20033;-50
2021/06/06 06:25:26;;;;;;;24.65;10.65;;;;;;;;;;6080622;23;20032;-50
2021/06/06 06:27:52;;;;;;;22.30;9.50;;;;;;;;;;6055632;23;20047;-53
2021/06/06 06:30:21;;;;;;;21.85;10.48;;;;;;;;;;6057323;23;20048;-53
2021/06/06 06:32:47;;;;;;;17.45;9.13;;;;;;;;;;6081686;23;20021;-52
2021/06/06 06:35:14;;;;;;;19.85;8.70;;;;;;;;;;6078578;23;20034;-53
2021/06/06 06:37:40;;;;;;;22.60;8.10;;;;;;;;;;6052696;23;20032;-54
2021/06/06 06:40:08;;;;;;;18.88;7.88;;;;;;;;;;6055104;23;20041;-56
2021/06/06 06:42:34;;;;;;;16.80;8.20;;;;;;;;;;6085406;23;20046;-52
2021/06/06 06:45:00;;;;;;;19.58;8.05;;;;;;;;;;6056134;23;20040;-52
2021/06/06 06:47:30;;;;;;;16.83;7.55;;;;;;;;;;6057045;23;20021;-52
2021/06/06 06:49:56;;;;;;;17.10;7.93;;;;;;;;;;6072358;23;20043;-56
2021/06/06 06:52:23;;;;;;;16.45;7.35;;;;;;;;;;6056739;23;20032;-54
2021/06/06 06:54:50;;;;;;;16.52;7.47;;;;;;;;;;6053746;23;20058;-50
2021/06/06 06:57:18;;;;;;;18.50;7.80;;;;;;;;;;6082894;23;20032;-51
2021/06/06 06:59:44;;;;;;;;;;;;;;;;;;6082135;23;20083;-52
2021/06/06 07:02:10;;;;;;;14.82;7.40;;;;;;;;;;6056356;23;19951;-56
2021/06/06 07:04:36;;;;;;;19.63;7.72;;;;;;;;;;6053545;23;20055;-53
2021/06/06 07:07:04;;;;;;;15.27;7.47;;;;;;;;;;6055788;23;20040;-55
2021/06/06 07:09:32;;;;;;;12.02;6.68;;;;;;;;;;6052742;23;20032;-50
2021/06/06 07:11:58;;;;;;;17.38;7.75;;;;;;;;;;6056731;23;20032;-49
2021/06/06 07:14:25;;;;;;;18.58;7.90;;;;;;;;;;6082819;23;20047;-51
2021/06/06 07:16:52;;;;;;;14.48;7.40;;;;;;;;;;6054558;23;20040;-48
2021/06/06 07:19:19;;;;;;;17.33;7.63;;;;;;;;;;6085142;23;20021;-50
2021/06/06 07:21:45;;;;;;;17.42;8.25;;;;;;;;;;6076930;23;20036;-52
2021/06/06 07:24:11;;;;;;;14.10;6.35;;;;;;;;;;6080778;23;20044;-55
2021/06/06 07:26:41;;;;;;;15.25;8.30;;;;;;;;;;6076172;23;20033;-53
2021/06/06 07:29:09;;;;;;;16.75;7.88;;;;;;;;;;6056652;23;20036;-52
2021/06/06 07:31:36;;;;;;;15.10;6.72;;;;;;;;;;6081498;23;20028;-56
2021/06/06 07:34:02;;;;;;;16.00;7.70;;;;;;;;;;6083242;23;20045;-52
2021/06/06 07:36:28;;;;;;;11.93;6.72;;;;;;;;;;6055193;23;20029;-55
2021/06/06 07:38:54;;;;;;;16.23;7.40;;;;;;;;;;6083294;23;20020;-54
2021/06/06 07:41:21;;;;;;;11.88;6.47;;;;;;;;;;6053218;23;20036;-57
2021/06/06 07:43:48;;;;;;;14.40;7.25;;;;;;;;;;6062058;23;20068;-57
2021/06/06 07:46:15;;;;;;;16.00;6.90;;;;;;;;;;6084423;23;20036;-56
2021/06/06 07:48:41;;;;;;;13.35;6.95;;;;;;;;;;6083677;23;20119;-53
2021/06/06 07:51:10;;;;;;;13.25;7.13;;;;;;;;;;6050359;23;20033;-52
2021/06/06 07:53:36;;;;;;;13.07;7.10;;;;;;;;;;6055881;23;20098;-55
2021/06/06 07:56:02;;;;;;;13.75;7.32;;;;;;;;;;6054357;23;20024;-52
2021/06/06 07:58:31;;;;;;;14.20;6.68;;;;;;;;;;6056898;23;20135;-53
2021/06/06 08:00:58;;;;;;;14.45;6.95;;;;;;;;;;6053626;23;20036;-56
2021/06/06 08:03:27;;;;;;;16.77;7.93;;;;;;;;;;6078648;23;20055;-55
2021/06/06 08:05:53;;;;;;;14.13;7.32;;;;;;;;;;6056809;23;20074;-53
2021/06/06 08:08:19;;;;;;;12.45;7.15;;;;;;;;;;6076910;23;20024;-56
2021/06/06 08:10:48;;;;;;;13.48;6.50;;;;;;;;;;6055687;23;20041;-52
2021/06/06 08:13:15;;;;;;;12.73;6.45;;;;;;;;;;6053010;23;20107;-53
2021/06/06 08:15:41;;;;;;;12.88;5.90;;;;;;;;;;6055564;23;20029;-49
2021/06/06 08:18:12;;;;;;;15.23;6.00;;;;;;;;;;6071873;23;20040;-49
2021/06/06 08:20:39;;;;;;;11.65;5.45;;;;;;;;;;6052589;23;20031;-52
2021/06/06 08:23:07;;;;;;;16.25;6.13;;;;;;;;;;6061947;23;20036;-50
2021/06/06 08:25:33;;;;;;;15.67;5.87;;;;;;;;;;6083507;23;20025;-52
2021/06/06 08:28:00;;;;;;;11.75;5.72;;;;;;;;;;6079487;23;20276;-53
2021/06/06 08:30:27;;;;;;;12.82;6.15;;;;;;;;;;6081501;23;20036;-50
2021/06/06 08:32:53;;;;;;;11.40;6.10;;;;;;;;;;6052618;23;20101;-49
2021/06/06 08:35:21;;;;;;;10.43;5.05;;;;;;;;;;6083004;23;20025;-55
2021/06/06 08:37:47;;;;;;;12.07;5.38;;;;;;;;;;6055235;23;20028;-52
2021/06/06 08:40:14;;;;;;;12.30;5.43;;;;;;;;;;6103890;23;20032;-51
2021/06/06 08:42:41;;;;;;;9.35;4.80;;;;;;;;;;6083915;23;20057;-55
2021/06/06 08:45:08;;;;;;;15.07;7.35;;;;;;;;;;6071836;23;20032;-52
2021/06/06 08:47:36;;;;;;;15.75;6.20;;;;;;;;;;6053219;23;20113;-54
2021/06/06 08:50:06;;;;;;;12.98;6.00;;;;;;;;;;6048376;23;20036;-50
2021/06/06 08:52:36;;;;;;;11.43;4.68;;;;;;;;;;6058356;23;20035;-54
2021/06/06 08:55:05;;;;;;;9.95;4.50;;;;;;;;;;6073460;23;20058;-49
2021/06/06 08:57:35;;;;;;;11.25;5.22;;;;;;;;;;6055317;23;20036;-52
2021/06/06 09:00:04;;;;;;;14.23;5.32;;;;;;;;;;6075582;23;20021;-51
2021/06/06 09:02:34;;;;;;;7.72;3.92;;;;;;;;;;6055944;23;20032;-54
2021/06/06 09:05:00;;;;;;;12.05;4.32;;;;;;;;;;6078515;23;20024;-56
2021/06/06 09:07:31;;;;;;;8.88;4.88;;;;;;;;;;6057051;23;20028;-53
2021/06/06 09:10:00;;;;;;;10.13;5.00;;;;;;;;;;6073583;23;20048;-55
2021/06/06 09:12:26;;;;;;;9.00;4.22;;;;;;;;;;6029439;23;20087;-54
2021/06/06 09:14:54;;;;;;;8.43;4.22;;;;;;;;;;6060458;23;20025;-53
2021/06/06 09:17:34;;;;;;;11.70;4.50;;;;;;;;;;6085453;23;20051;-55
2021/06/06 09:20:00;;;;;;;8.23;4.20;;;;;;;;;;6059089;23;20265;-51
2021/06/06 09:22:30;;;;;;;10.38;4.65;;;;;;;;;;6058028;23;20039;-50
2021/06/06 09:25:07;;;;;;;22.65;8.13;;;;;;;;;;6054260;23;20028;-52
2021/06/06 09:27:35;;;;;;;10.43;5.43;;;;;;;;;;6058592;23;20037;-52
2021/06/06 09:30:03;;;;;;;10.70;4.18;;;;;;;;;;6051415;23;20028;-50
2021/06/06 09:32:30;;;;;;;8.55;4.10;;;;;;;;;;6081479;23;20085;-53
2021/06/06 09:34:57;;;;;;;11.15;4.60;;;;;;;;;;6028583;23;20037;-53
2021/06/06 09:37:26;;;;;;;10.63;4.30;;;;;;;;;;6081300;23;20040;-51
2021/06/06 09:39:57;;;;;;;10.80;4.65;;;;;;;;;;6058025;23;20068;-53
2021/06/06 09:42:28;;;;;;;8.23;3.97;;;;;;;;;;6078003;23;20028;-52
2021/06/06 09:45:03;;;;;;;6.78;3.55;;;;;;;;;;6057718;23;20113;-52
2021/06/06 09:47:30;;;;;;;10.35;4.40;;;;;;;;;;6046327;23;20025;-53
2021/06/06 09:50:02;;;;;;;9.27;3.92;;;;;;;;;;6081648;23;20044;-56
2021/06/06 09:52:40;;;;;;;10.27;3.83;;;;;;;;;;6052927;23;20039;-56
2021/06/06 09:55:11;;;;;;;8.98;3.70;;;;;;;;;;6079658;23;20025;-53
2021/06/06 09:57:42;;;;;;;6.70;3.22;;;;;;;;;;6052549;23;20113;-54
2021/06/06 10:00:11;;;;;;;7.60;3.60;;;;;;;;;;6081372;23;20021;-54
2021/06/06 10:02:41;;;;;;;8.30;4.38;;;;;;;;;;6070733;23;20048;-53
2021/06/06 10:05:10;;;;;;;10.35;3.88;;;;;;;;;;6053888;23;20077;-55
2021/06/06 10:07:39;;;;;;;9.73;3.83;;;;;;;;;;6041842;23;20036;-57
2021/06/06 10:10:10;;;;;;;10.32;3.78;;;;;;;;;;6082038;23;20025;-54
2021/06/06 10:12:40;;;;;;;10.52;3.90;;;;;;;;;;6054102;23;20024;-56
2021/06/06 10:15:07;;;;;;;10.07;4.32;;;;;;;;;;6057445;23;20044;-57
2021/06/06 10:17:39;;;;;;;8.77;4.00;;;;;;;;;;6073665;23;20035;-51
2021/06/06 10:20:09;;;;;;;9.65;3.83;;;;;;;;;;6051165;23;20025;-53
2021/06/06 10:22:36;;;;;;;7.07;3.63;;;;;;;;;;6035690;23;20027;-53
2021/06/06 10:25:08;;;;;;;8.55;3.70;;;;;;;;;;6079637;23;20033;-53
2021/06/06 10:27:45;;;;;;;7.68;3.78;;;;;;;;;;6041203;23;20029;-51
2021/06/06 10:30:13;;;;;;;7.15;3.05;;;;;;;;;;6055691;23;20029;-52
2021/06/06 10:32:43;;;;;;;9.85;3.92;;;;;;;;;;6078651;23;20040;-50
2021/06/06 10:35:12;;;;;;;6.97;3.33;;;;;;;;;;6056697;23;20028;-50
2021/06/06 10:37:41;;;;;;;6.53;3.30;;;;;;;;;;6053963;23;20017;-54
2021/06/06 10:40:09;;;;;;;7.70;3.05;;;;;;;;;;6081259;23;20033;-57
2021/06/06 10:42:39;;;;;;;9.02;2.80;;;;;;;;;;6078724;23;20024;-54
2021/06/06 10:45:08;;;;;;;6.88;3.15;;;;;;;;;;6080790;23;20036;-57
2021/06/06 10:47:40;;;;;;;10.63;4.80;;;;;;;;;;6055101;23;20044;-55
2021/06/06 10:50:15;;;;;;;9.55;3.50;;;;;;;;;;6076397;23;20060;-53
2021/06/06 10:52:41;;;;;;;8.57;3.33;;;;;;;;;;6079757;23;20057;-56
2021/06/06 10:55:16;;;;;;;7.20;3.28;;;;;;;;;;6073828;23;20032;-55
2021/06/06 10:57:44;;;;;;;8.50;3.30;;;;;;;;;;6029961;23;20076;-55
2021/06/06 11:00:23;;;;;;;7.93;3.28;;;;;;;;;;6047180;23;20106;-56
2021/06/06 11:02:54;;;;;;;7.75;3.25;;;;;;;;;;6078719;23;20029;-56
2021/06/06 11:05:34;;;;;;;7.65;3.30;;;;;;;;;;6096375;23;20020;-55
2021/06/06 11:08:02;;;;;;;10.30;3.53;;;;;;;;;;6078939;23;20036;-54
2021/06/06 11:10:31;;;;;;;6.72;2.63;;;;;;;;;;6051822;23;20044;-54
2021/06/06 11:12:57;;;;;;;6.38;2.92;;;;;;;;;;6081867;23;20044;-55
2021/06/06 11:15:32;;;;;;;7.97;3.08;;;;;;;;;;6054566;23;20036;-49
2021/06/06 11:18:07;;;;;;;9.80;3.45;;;;;;;;;;6081944;23;20036;-58
2021/06/06 11:20:35;;;;;;;10.68;3.22;;;;;;;;;;6054027;23;20044;-54
2021/06/06 11:23:11;;;;;;;10.52;3.50;;;;;;;;;;6080439;23;20106;-58
2021/06/06 11:25:39;;;;;;;6.57;3.35;;;;;;;;;;6075410;23;20040;-65
2021/06/06 11:28:26;;;;;;;12.50;3.83;;;;;;;;;;6081207;23;20073;-55
2021/06/06 11:30:53;;;;;;;6.22;3.15;;;;;;;;;;6079490;23;20039;-52
2021/06/06 11:33:29;;;;;;;7.93;3.50;;;;;;;;;;6056441;23;20025;-57
2021/06/06 11:35:57;;;;;;;10.15;5.15;;;;;;;;;;6054003;23;20021;-57
2021/06/06 11:38:31;;;;;;;11.57;5.57;;;;;;;;;;6080480;23;20032;-52
2021/06/06 11:41:21;;;;;;;11.52;6.60;;;;;;;;;;6078672;23;20106;-56
2021/06/06 11:43:49;;;;;;;12.30;6.72;;;;;;;;;;6049470;23;20054;-53
2021/06/06 11:46:20;;;;;;;11.18;5.22;;;;;;;;;;6075602;23;20063;-55
2021/06/06 11:48:55;;;;;;;8.23;3.85;;;;;;;;;;6082102;23;20020;-51
2021/06/06 11:51:26;;;;;;;10.30;5.15;;;;;;;;;;6055238;23;20040;-52
2021/06/06 11:53:52;;;;;;;7.38;3.78;;;;;;;;;;6079897;23;20043;-54
2021/06/06 11:56:31;;;;;;;7.90;4.43;;;;;;;;;;6079552;23;20155;-56
2021/06/06 11:59:01;;;;;;;7.90;3.05;;;;;;;;;;6053996;23;20020;-55
2021/06/06 12:01:27;;;;;;;7.28;3.65;;;;;;;;;;6077842;23;20151;-54
2021/06/06 12:04:04;;;;;;;9.35;4.43;;;;;;;;;;6049827;23;20029;-57
2021/06/06 12:06:32;;;;;;;6.03;3.00;;;;;;;;;;6047804;23;20065;-53
2021/06/06 12:09:00;;;;;;;10.68;3.65;;;;;;;;;;6050171;23;20044;-52
2021/06/06 12:11:29;;;;;;;5.82;2.78;;;;;;;;;;6044406;23;20149;-55
2021/06/06 12:14:09;;;;;;;6.03;2.30;;;;;;;;;;6062092;23;20048;-54
2021/06/06 12:16:35;;;;;;;6.47;3.45;;;;;;;;;;6025224;23;20212;-51
2021/06/06 12:19:07;;;;;;;6.68;3.03;;;;;;;;;;6052219;23;20017;-58
2021/06/06 12:21:37;;;;;;;5.22;2.63;;;;;;;;;;6049338;23;20025;-55
2021/06/06 12:24:08;;;;;;;6.78;2.15;;;;;;;;;;6043640;23;20028;-53
2021/06/06 12:26:35;;;;;;;7.47;2.97;;;;;;;;;;6052818;23;20029;-55
2021/06/06 12:29:04;;;;;;;7.68;2.63;;;;;;;;;;6050405;23;20018;-55
2021/06/06 12:31:31;;;;;;;3.90;2.03;;;;;;;;;;6052385;23;20032;-58
2021/06/06 12:34:09;;;;;;;7.93;2.60;;;;;;;;;;6058149;23;20093;-59
2021/06/06 12:36:37;;;;;;;6.40;2.03;;;;;;;;;;6053521;23;20037;-53
2021/06/06 12:39:05;;;;;;;3.97;2.00;;;;;;;;;;6043693;23;20037;-50
2021/06/06 12:41:35;;;;;;;3.58;1.60;;;;;;;;;;6049757;23;20026;-56
2021/06/06 12:44:01;;;;;;;2.72;1.55;;;;;;;;;;6031444;23;20037;-51
2021/06/06 12:46:27;;;;;;;5.43;2.53;;;;;;;;;;6022540;23;20044;-49
2021/06/06 12:49:01;;;;;;;5.75;1.77;;;;;;;;;;6054000;23;20035;-55
2021/06/06 12:51:28;;;;;;;6.15;1.85;;;;;;;;;;6022972;23;20052;-56
2021/06/06 12:54:05;;;;;;;3.80;2.10;;;;;;;;;;6037017;23;20135;-56
2021/06/06 12:56:31;;;;;;;7.03;2.10;;;;;;;;;;6070281;23;20036;-55
2021/06/06 12:59:08;;;;;;;5.65;2.00;;;;;;;;;;6052334;23;20033;-53
2021/06/06 13:01:34;;;;;;;6.55;2.03;;;;;;;;;;6049012;23;20040;-55
2021/06/06 13:04:08;;;;;;;3.53;1.75;;;;;;;;;;6048877;23;20029;-58
2021/06/06 13:06:36;;;;;;;5.30;1.90;;;;;;;;;;6080788;23;20029;-57
2021/06/06 13:09:25;;;;;;;5.65;2.10;;;;;;;;;;6079125;23;20043;-52
2021/06/06 13:11:52;;;;;;;7.13;2.20;;;;;;;;;;6056061;23;20017;-56
2021/06/06 13:14:21;;;;;;;3.40;1.60;;;;;;;;;;6054754;23;20032;-55
2021/06/06 13:16:57;;;;;;;4.93;1.98;;;;;;;;;;6058380;23;20084;-57
2021/06/06 13:19:25;;;;;;;5.03;1.90;;;;;;;;;;6057894;23;20028;-55
2021/06/06 13:22:03;;;;;;;7.90;2.53;;;;;;;;;;6057986;23;20028;-54
2021/06/06 13:24:31;;;;;;;7.78;2.20;;;;;;;;;;6054720;23;20021;-54
2021/06/06 13:26:58;;;;;;;7.28;2.20;;;;;;;;;;6058115;23;20078;-56
2021/06/06 13:29:30;;;;;;;3.50;1.67;;;;;;;;;;6054491;23;20037;-57
2021/06/06 13:31:58;;;;;;;5.68;2.03;;;;;;;;;;6081926;23;20045;-57
2021/06/06 13:34:24;;;;;;;7.45;2.10;;;;;;;;;;6080342;23;20032;-56
2021/06/06 13:36:51;;;;;;;3.85;1.50;;;;;;;;;;6080941;23;20024;-57
2021/06/06 13:39:20;;;;;;;4.65;2.00;;;;;;;;;;6018430;23;20024;-53
2021/06/06 13:41:47;;;;;;;4.45;1.95;;;;;;;;;;6077596;23;20056;-57
2021/06/06 13:44:13;;;;;;;8.02;1.85;;;;;;;;;;6052077;23;20037;-56
2021/06/06 13:46:39;;;;;;;7.05;2.10;;;;;;;;;;6080491;23;20020;-57
2021/06/06 13:49:07;;;;;;;2.30;1.40;;;;;;;;;;6074968;23;20132;-56
2021/06/06 13:51:34;;;;;;;5.72;2.20;;;;;;;;;;6056499;23;20107;-53
2021/06/06 13:54:00;;;;;;;6.60;1.70;;;;;;;;;;6078214;23;20020;-55
2021/06/06 13:56:26;;;;;;;5.10;1.60;;;;;;;;;;6048504;23;20044;-58
2021/06/06 13:58:54;;;;;;;6.40;2.17;;;;;;;;;;6076621;23;20032;-58
2021/06/06 14:01:20;;;;;;;5.75;2.35;;;;;;;;;;6066195;23;20040;-56
2021/06/06 14:03:46;;;;;;;6.15;1.98;;;;;;;;;;6054564;23;20286;-53
2021/06/06 14:06:13;;;;;;;4.00;1.80;;;;;;;;;;6075401;23;20024;-55
2021/06/06 14:08:40;;;;;;;5.40;2.55;;;;;;;;;;6068413;23;20025;-55
2021/06/06 14:11:07;;;;;;;4.32;1.98;;;;;;;;;;6050204;23;20045;-49
2021/06/06 14:13:35;;;;;;;3.33;1.70;;;;;;;;;;6058748;23;20025;-50
2021/06/06 14:16:05;;;;;;;3.83;1.50;;;;;;;;;;6082548;23;20033;-56
2021/06/06 14:18:34;;;;;;;7.13;1.83;;;;;;;;;;6063131;23;20028;-55
2021/06/06 14:21:00;;;;;;;5.50;1.65;;;;;;;;;;6079614;23;20094;-59
2021/06/06 14:23:27;;;;;;;7.35;1.80;;;;;;;;;;6050721;23;20114;-57
2021/06/06 14:38:51;;;;;;;3.50;1.40;;;;;;;;;;5070735;28;20065;-58
2021/06/06 14:41:18;;;;;;;2.92;1.50;;;;;;;;;;5093024;27;20040;-57
2021/06/06 14:43:44;;;;;;;3.10;1.27;;;;;;;;;;5075378;28;20048;-55
2021/06/06 14:46:10;;;;;;;9.73;1.80;;;;;;;;;;5081950;28;20059;-55
2021/06/06 14:48:37;;;;;;;5.03;1.50;;;;;;;;;;5090543;28;20051;-57
2021/06/06 14:51:05;;;;;;;2.95;1.50;;;;;;;;;;5081650;28;20037;-56
2021/06/06 14:53:32;;;;;;;3.50;1.55;;;;;;;;;;5076992;27;20036;-56